createdAt,value
2019-05-14T00:00:03.503Z,59
2019-05-14T00:01:03.869Z,60
2019-05-14T00:02:03.565Z,60
2019-05-14T00:03:03.308Z,60
2019-05-14T00:04:03.564Z,60
2019-05-14T00:05:03.568Z,60
2019-05-14T00:06:03.225Z,60
2019-05-14T00:07:03.226Z,60
2019-05-14T00:08:03.103Z,60
2019-05-14T00:09:03.538Z,60
2019-05-14T00:10:03.158Z,60
2019-05-14T00:11:03.701Z,60
2019-05-14T00:12:03.153Z,61
2019-05-14T00:13:03.346Z,61
2019-05-14T00:14:03.121Z,61
2019-05-14T00:15:02.896Z,61
2019-05-14T00:16:03.047Z,61
2019-05-14T00:17:03.058Z,61
2019-05-14T00:18:03.124Z,61
2019-05-14T00:19:02.908Z,61
2019-05-14T00:20:13.639Z,61
2019-05-14T00:21:02.758Z,61
2019-05-14T00:22:02.848Z,62
2019-05-14T00:23:02.737Z,62
2019-05-14T00:24:03.687Z,62
2019-05-14T00:25:02.814Z,62
2019-05-14T00:26:03.335Z,62
2019-05-14T00:27:03.642Z,62
2019-05-14T00:28:03.482Z,62
2019-05-14T00:29:03.487Z,62
2019-05-14T00:30:03.501Z,62
2019-05-14T00:31:03.420Z,62
2019-05-14T00:32:03.579Z,62
2019-05-14T00:33:03.539Z,62
2019-05-14T00:34:03.161Z,63
2019-05-14T00:35:03.365Z,63
2019-05-14T00:36:03.466Z,63
2019-05-14T00:37:03.333Z,63
2019-05-14T00:38:03.318Z,63
2019-05-14T00:39:03.042Z,63
2019-05-14T00:40:03.327Z,63
2019-05-14T00:41:03.105Z,63
2019-05-14T00:42:03.375Z,63
2019-05-14T00:43:03.144Z,63
2019-05-14T00:44:03.641Z,63
2019-05-14T00:45:03.536Z,63
2019-05-14T00:46:03.447Z,64
2019-05-14T00:47:03.737Z,64
2019-05-14T00:48:03.048Z,64
2019-05-14T00:49:03.146Z,64
2019-05-14T00:50:03.243Z,64
2019-05-14T00:51:03.013Z,64
2019-05-14T00:52:03.032Z,64
2019-05-14T00:53:03.314Z,64
2019-05-14T00:54:02.985Z,64
2019-05-14T00:55:03.013Z,64
2019-05-14T00:56:03.042Z,64
2019-05-14T00:57:02.891Z,64
2019-05-14T00:58:02.915Z,64
2019-05-14T00:59:03.730Z,64
2019-05-14T01:00:03.639Z,64
2019-05-14T01:01:03.123Z,64
2019-05-14T01:02:03.444Z,64
2019-05-14T01:03:03.546Z,64
2019-05-14T01:04:03.386Z,64
2019-05-14T01:05:03.239Z,64
2019-05-14T01:06:03.725Z,65
2019-05-14T01:07:04.697Z,65
2019-05-14T01:08:03.457Z,65
2019-05-14T01:09:03.469Z,65
2019-05-14T01:10:03.429Z,65
2019-05-14T01:11:03.501Z,65
2019-05-14T01:12:03.148Z,65
2019-05-14T01:13:03.246Z,65
2019-05-14T01:14:03.163Z,65
2019-05-14T01:15:14.476Z,65
2019-05-14T01:16:03.053Z,65
2019-05-14T01:17:03.397Z,65
2019-05-14T01:18:03.168Z,65
2019-05-14T01:19:03.103Z,65
2019-05-14T01:20:03.467Z,65
2019-05-14T01:21:02.965Z,65
2019-05-14T01:22:02.984Z,65
2019-05-14T01:23:02.650Z,66
2019-05-14T01:24:03.045Z,66
2019-05-14T01:25:03.081Z,66
2019-05-14T01:26:02.951Z,66
2019-05-14T01:27:03.586Z,66
2019-05-14T01:28:03.019Z,66
2019-05-14T01:29:03.689Z,66
2019-05-14T01:30:03.756Z,66
2019-05-14T01:31:03.529Z,66
2019-05-14T01:32:03.036Z,66
2019-05-14T01:33:03.702Z,66
2019-05-14T01:34:03.573Z,67
2019-05-14T01:35:03.599Z,67
2019-05-14T01:36:03.376Z,67
2019-05-14T01:37:03.638Z,67
2019-05-14T01:38:03.456Z,67
2019-05-14T01:39:03.589Z,67
2019-05-14T01:40:03.611Z,67
2019-05-14T01:41:03.322Z,67
2019-05-14T01:42:03.402Z,67
2019-05-14T01:43:02.946Z,67
2019-05-14T01:44:03.299Z,68
2019-05-14T01:45:03.445Z,68
2019-05-14T01:46:03.260Z,68
2019-05-14T01:47:03.145Z,68
2019-05-14T01:48:03.343Z,68
2019-05-14T01:49:03.206Z,68
2019-05-14T01:50:03.370Z,68
2019-05-14T01:51:03.097Z,68
2019-05-14T01:52:02.782Z,68
2019-05-14T01:53:02.946Z,68
2019-05-14T01:54:03.065Z,68
2019-05-14T01:55:02.922Z,68
2019-05-14T01:56:02.791Z,68
2019-05-14T01:57:02.847Z,68
2019-05-14T01:58:02.829Z,68
2019-05-14T01:59:02.750Z,68
2019-05-14T02:00:02.855Z,68
2019-05-14T02:01:02.889Z,68
2019-05-14T02:02:03.930Z,68
2019-05-14T02:03:03.627Z,68
2019-05-14T02:04:04.196Z,68
2019-05-14T02:05:03.485Z,68
2019-05-14T02:06:03.464Z,68
2019-05-14T02:07:03.266Z,69
2019-05-14T02:08:03.354Z,69
2019-05-14T02:09:03.426Z,69
2019-05-14T02:10:03.411Z,69
2019-05-14T02:11:03.156Z,69
2019-05-14T02:12:03.398Z,69
2019-05-14T02:13:03.566Z,69
2019-05-14T02:14:03.197Z,69
2019-05-14T02:15:03.329Z,69
2019-05-14T02:16:03.275Z,69
2019-05-14T02:17:02.984Z,69
2019-05-14T02:18:03.212Z,69
2019-05-14T02:19:02.897Z,69
2019-05-14T02:20:03.006Z,69
2019-05-14T02:21:02.973Z,69
2019-05-14T02:22:02.978Z,70
2019-05-14T02:23:03.056Z,70
2019-05-14T02:24:02.784Z,70
2019-05-14T02:25:02.871Z,70
2019-05-14T02:26:02.979Z,70
2019-05-14T02:27:02.644Z,70
2019-05-14T02:28:03.442Z,70
2019-05-14T02:29:03.607Z,70
2019-05-14T02:30:02.814Z,70
2019-05-14T02:31:04.393Z,70
2019-05-14T02:32:03.676Z,70
2019-05-14T02:33:03.380Z,70
2019-05-14T02:34:03.255Z,70
2019-05-14T02:35:03.536Z,70
2019-05-14T02:36:03.332Z,70
2019-05-14T02:37:03.459Z,70
2019-05-14T02:38:03.137Z,71
2019-05-14T02:39:03.327Z,71
2019-05-14T02:40:03.239Z,71
2019-05-14T02:41:03.177Z,71
2019-05-14T02:42:03.169Z,71
2019-05-14T02:43:03.276Z,71
2019-05-14T02:44:03.432Z,71
2019-05-14T02:45:03.284Z,71
2019-05-14T02:46:22.198Z,71
2019-05-14T02:47:02.954Z,71
2019-05-14T02:48:03.157Z,71
2019-05-14T02:49:02.671Z,71
2019-05-14T02:50:03.036Z,71
2019-05-14T02:51:02.763Z,71
2019-05-14T02:52:03.450Z,71
2019-05-14T02:53:03.734Z,71
2019-05-14T02:54:02.930Z,71
2019-05-14T02:55:02.802Z,71
2019-05-14T02:56:03.453Z,71
2019-05-14T02:57:02.755Z,71
2019-05-14T02:58:03.458Z,71
2019-05-14T02:59:10.205Z,71
2019-05-14T03:00:03.699Z,72
2019-05-14T03:01:03.579Z,72
2019-05-14T03:02:03.419Z,72
2019-05-14T03:03:02.800Z,72
2019-05-14T03:04:03.413Z,72
2019-05-14T03:05:02.872Z,72
2019-05-14T03:06:03.479Z,72
2019-05-14T03:07:03.278Z,72
2019-05-14T03:08:03.343Z,72
2019-05-14T03:09:03.220Z,72
2019-05-14T03:10:03.410Z,72
2019-05-14T03:11:03.199Z,72
2019-05-14T03:12:03.411Z,72
2019-05-14T03:13:03.062Z,72
2019-05-14T03:14:03.370Z,73
2019-05-14T03:15:03.305Z,73
2019-05-14T03:16:36.027Z,73
2019-05-14T03:18:03.036Z,73
2019-05-14T03:19:02.993Z,73
2019-05-14T03:20:03.012Z,73
2019-05-14T03:21:03.039Z,73
2019-05-14T03:22:02.816Z,73
2019-05-14T03:23:22.700Z,73
2019-05-14T03:24:03.026Z,73
2019-05-14T03:25:03.191Z,73
2019-05-14T03:26:02.746Z,73
2019-05-14T03:27:02.797Z,73
2019-05-14T03:28:02.930Z,73
2019-05-14T03:29:02.633Z,73
2019-05-14T03:30:03.007Z,73
2019-05-14T03:31:04.802Z,73
2019-05-14T03:32:04.222Z,73
2019-05-14T03:33:03.884Z,73
2019-05-14T03:34:04.385Z,73
2019-05-14T03:35:05.269Z,73
2019-05-14T03:36:27.184Z,73
2019-05-14T03:37:04.617Z,73
2019-05-14T03:38:03.494Z,73
2019-05-14T03:39:03.332Z,73
2019-05-14T03:40:03.295Z,73
2019-05-14T03:41:03.394Z,72
2019-05-14T03:42:03.347Z,73
2019-05-14T03:43:03.345Z,73
2019-05-14T03:44:03.340Z,73
2019-05-14T03:45:03.435Z,73
2019-05-14T03:46:03.047Z,73
2019-05-14T03:47:10.850Z,73
2019-05-14T03:48:03.162Z,73
2019-05-14T03:49:02.885Z,73
2019-05-14T03:50:02.806Z,73
2019-05-14T03:51:02.830Z,73
2019-05-14T03:52:03.055Z,73
2019-05-14T03:53:03.029Z,73
2019-05-14T03:54:13.259Z,73
2019-05-14T03:55:05.264Z,73
2019-05-14T03:56:02.679Z,73
2019-05-14T03:57:02.733Z,73
2019-05-14T03:58:02.496Z,73
2019-05-14T03:59:03.880Z,73
2019-05-14T04:00:03.636Z,73
2019-05-14T04:01:03.640Z,73
2019-05-14T04:02:03.616Z,73
2019-05-14T04:03:03.363Z,73
2019-05-14T04:04:03.285Z,73
2019-05-14T04:05:03.578Z,74
2019-05-14T04:06:03.423Z,74
2019-05-14T04:07:03.653Z,73
2019-05-14T04:08:03.264Z,73
2019-05-14T04:09:03.560Z,73
2019-05-14T04:10:03.321Z,73
2019-05-14T04:11:03.127Z,73
2019-05-14T04:12:03.249Z,73
2019-05-14T04:13:03.157Z,73
2019-05-14T04:14:03.096Z,73
2019-05-14T04:15:03.101Z,73
2019-05-14T04:16:03.657Z,73
2019-05-14T04:17:31.382Z,73
2019-05-14T04:18:03.554Z,73
2019-05-14T04:19:03.479Z,73
2019-05-14T04:20:03.290Z,74
2019-05-14T04:21:03.006Z,74
2019-05-14T04:22:03.043Z,74
2019-05-14T04:23:02.962Z,74
2019-05-14T04:24:02.964Z,73
2019-05-14T04:25:03.035Z,73
2019-05-14T04:26:02.739Z,73
2019-05-14T04:27:13.731Z,73
2019-05-14T04:28:03.652Z,73
2019-05-14T04:29:02.637Z,74
2019-05-14T04:30:02.875Z,74
2019-05-14T04:31:02.739Z,74
2019-05-14T04:32:03.919Z,74
2019-05-14T04:33:03.539Z,74
2019-05-14T04:34:03.454Z,74
2019-05-14T04:35:02.305Z,74
2019-05-14T04:36:03.540Z,74
2019-05-14T04:37:03.472Z,74
2019-05-14T04:38:03.505Z,74
2019-05-14T04:39:03.330Z,74
2019-05-14T04:40:03.562Z,74
2019-05-14T04:41:03.487Z,74
2019-05-14T04:42:03.356Z,74
2019-05-14T04:43:03.539Z,74
2019-05-14T04:44:03.109Z,74
2019-05-14T04:45:06.320Z,74
2019-05-14T04:46:02.951Z,74
2019-05-14T04:47:41.043Z,74
2019-05-14T04:48:42.914Z,74
2019-05-14T04:50:03.018Z,74
2019-05-14T04:51:03.064Z,74
2019-05-14T04:52:02.783Z,74
2019-05-14T04:53:02.706Z,74
2019-05-14T04:54:02.976Z,74
2019-05-14T04:55:03.113Z,74
2019-05-14T04:56:03.664Z,74
2019-05-14T04:57:03.684Z,74
2019-05-14T04:58:02.652Z,74
2019-05-14T04:59:03.653Z,74
2019-05-14T05:00:03.609Z,74
2019-05-14T05:01:03.530Z,74
2019-05-14T05:02:03.551Z,74
2019-05-14T05:03:11.844Z,74
2019-05-14T05:04:03.301Z,74
2019-05-14T05:05:03.515Z,74
2019-05-14T05:06:03.162Z,74
2019-05-14T05:07:03.293Z,74
2019-05-14T05:08:03.429Z,74
2019-05-14T05:09:03.152Z,74
2019-05-14T05:10:03.329Z,74
2019-05-14T05:11:03.225Z,74
2019-05-14T05:12:03.125Z,74
2019-05-14T05:13:02.967Z,74
2019-05-14T05:14:02.890Z,74
2019-05-14T05:15:02.920Z,74
2019-05-14T05:16:02.975Z,74
2019-05-14T05:17:03.020Z,74
2019-05-14T05:18:03.018Z,74
2019-05-14T05:19:03.767Z,74
2019-05-14T05:20:03.738Z,74
2019-05-14T05:21:03.591Z,74
2019-05-14T05:22:02.854Z,74
2019-05-14T05:23:03.554Z,74
2019-05-14T05:24:03.723Z,74
2019-05-14T05:25:03.783Z,74
2019-05-14T05:26:03.461Z,74
2019-05-14T05:27:03.343Z,74
2019-05-14T05:28:03.267Z,74
2019-05-14T05:29:10.733Z,74
2019-05-14T05:30:03.518Z,74
2019-05-14T05:31:03.513Z,74
2019-05-14T05:32:03.524Z,74
2019-05-14T05:33:03.306Z,74
2019-05-14T05:34:03.303Z,73
2019-05-14T05:35:03.321Z,73
2019-05-14T05:36:03.161Z,73
2019-05-14T05:37:03.189Z,73
2019-05-14T05:38:03.427Z,73
2019-05-14T05:39:03.040Z,73
2019-05-14T05:40:03.302Z,73
2019-05-14T05:41:02.915Z,73
2019-05-14T05:42:03.204Z,73
2019-05-14T05:43:03.503Z,73
2019-05-14T05:44:02.924Z,73
2019-05-14T05:45:03.173Z,73
2019-05-14T05:46:03.374Z,73
2019-05-14T05:47:03.412Z,73
2019-05-14T05:48:03.170Z,73
2019-05-14T05:49:03.124Z,73
2019-05-14T05:50:03.314Z,73
2019-05-14T05:51:02.931Z,73
2019-05-14T05:52:03.075Z,72
2019-05-14T05:53:03.008Z,72
2019-05-14T05:54:03.113Z,72
2019-05-14T05:55:02.852Z,72
2019-05-14T05:56:02.768Z,72
2019-05-14T05:57:02.776Z,72
2019-05-14T05:58:02.794Z,72
2019-05-14T05:59:02.677Z,72
2019-05-14T06:00:02.702Z,72
2019-05-14T06:01:03.633Z,72
2019-05-14T06:02:02.727Z,71
2019-05-14T06:03:03.454Z,71
2019-05-14T06:04:03.005Z,71
2019-05-14T06:05:03.321Z,71
2019-05-14T06:06:03.740Z,71
2019-05-14T06:07:03.381Z,71
2019-05-14T06:08:03.225Z,71
2019-05-14T06:09:03.410Z,71
2019-05-14T06:10:03.540Z,71
2019-05-14T06:11:03.487Z,71
2019-05-14T06:12:03.002Z,71
2019-05-14T06:13:03.373Z,71
2019-05-14T06:14:03.336Z,71
2019-05-14T06:15:02.929Z,71
2019-05-14T06:16:03.068Z,71
2019-05-14T06:17:03.369Z,71
2019-05-14T06:18:22.329Z,71
2019-05-14T06:19:02.983Z,71
2019-05-14T06:20:02.908Z,71
2019-05-14T06:21:03.138Z,71
2019-05-14T06:22:04.513Z,71
2019-05-14T06:23:02.893Z,71
2019-05-14T06:24:03.273Z,70
2019-05-14T06:25:02.842Z,70
2019-05-14T06:26:02.810Z,70
2019-05-14T06:27:03.698Z,70
2019-05-14T06:28:02.902Z,70
2019-05-14T06:29:02.565Z,70
2019-05-14T06:30:02.966Z,70
2019-05-14T06:31:03.613Z,70
2019-05-14T06:32:03.693Z,70
2019-05-14T06:33:03.465Z,70
2019-05-14T06:34:03.716Z,70
2019-05-14T06:35:03.722Z,69
2019-05-14T06:36:03.223Z,69
2019-05-14T06:37:03.576Z,68
2019-05-14T06:38:03.355Z,68
2019-05-14T06:39:03.218Z,68
2019-05-14T06:40:03.321Z,68
2019-05-14T06:41:03.533Z,68
2019-05-14T06:42:03.199Z,68
2019-05-14T06:43:03.232Z,68
2019-05-14T06:44:03.400Z,68
2019-05-14T06:45:03.481Z,68
2019-05-14T06:46:03.065Z,68
2019-05-14T06:47:03.013Z,68
2019-05-14T06:48:03.072Z,68
2019-05-14T06:49:02.701Z,68
2019-05-14T06:50:03.091Z,68
2019-05-14T06:51:03.026Z,68
2019-05-14T06:52:03.255Z,68
2019-05-14T06:53:02.829Z,68
2019-05-14T06:54:03.130Z,67
2019-05-14T06:55:03.666Z,67
2019-05-14T06:56:02.820Z,67
2019-05-14T06:57:02.672Z,67
2019-05-14T06:58:02.997Z,67
2019-05-14T06:59:02.872Z,67
2019-05-14T07:00:03.404Z,67
2019-05-14T07:01:02.809Z,67
2019-05-14T07:02:03.709Z,67
2019-05-14T07:03:03.648Z,67
2019-05-14T07:04:03.767Z,67
2019-05-14T07:05:02.718Z,67
2019-05-14T07:06:03.469Z,67
2019-05-14T07:07:03.559Z,67
2019-05-14T07:08:03.628Z,67
2019-05-14T07:09:03.596Z,66
2019-05-14T07:10:03.268Z,66
2019-05-14T07:11:03.319Z,66
2019-05-14T07:12:03.376Z,66
2019-05-14T07:13:03.424Z,66
2019-05-14T07:14:03.267Z,66
2019-05-14T07:15:03.294Z,66
2019-05-14T07:16:03.359Z,66
2019-05-14T07:17:03.189Z,66
2019-05-14T07:18:03.427Z,65
2019-05-14T07:19:03.391Z,65
2019-05-14T07:20:03.436Z,65
2019-05-14T07:21:03.026Z,65
2019-05-14T07:22:03.101Z,65
2019-05-14T07:23:03.137Z,65
2019-05-14T07:24:03.089Z,65
2019-05-14T07:25:03.109Z,65
2019-05-14T07:26:02.944Z,65
2019-05-14T07:27:02.984Z,65
2019-05-14T07:28:03.006Z,65
2019-05-14T07:29:03.003Z,65
2019-05-14T07:30:02.944Z,65
2019-05-14T07:31:02.584Z,65
2019-05-14T07:32:03.512Z,64
2019-05-14T07:33:02.608Z,64
2019-05-14T07:34:03.550Z,64
2019-05-14T07:35:03.752Z,65
2019-05-14T07:36:02.677Z,64
2019-05-14T07:37:03.490Z,64
2019-05-14T07:38:03.578Z,64
2019-05-14T07:39:03.344Z,65
2019-05-14T07:40:03.801Z,65
2019-05-14T07:41:03.041Z,65
2019-05-14T07:42:03.157Z,64
2019-05-14T07:43:03.201Z,64
2019-05-14T07:44:03.225Z,64
2019-05-14T07:45:03.172Z,64
2019-05-14T07:46:02.934Z,64
2019-05-14T07:47:03.091Z,64
2019-05-14T07:48:03.152Z,64
2019-05-14T07:49:12.069Z,64
2019-05-14T07:50:03.091Z,64
2019-05-14T07:51:02.786Z,64
2019-05-14T07:52:02.863Z,64
2019-05-14T07:53:03.456Z,63
2019-05-14T07:54:02.549Z,63
2019-05-14T07:55:03.723Z,63
2019-05-14T07:56:03.102Z,63
2019-05-14T07:57:02.652Z,63
2019-05-14T07:58:03.543Z,63
2019-05-14T07:59:03.553Z,63
2019-05-14T08:00:03.518Z,63
2019-05-14T08:01:03.498Z,63
2019-05-14T08:02:03.402Z,63
2019-05-14T08:03:03.574Z,63
2019-05-14T08:04:03.738Z,63
2019-05-14T08:05:03.583Z,63
2019-05-14T08:06:03.563Z,63
2019-05-14T08:07:03.319Z,63
2019-05-14T08:08:03.436Z,63
2019-05-14T08:09:03.767Z,63
2019-05-14T08:10:03.469Z,63
2019-05-14T08:11:03.400Z,63
2019-05-14T08:12:03.136Z,63
2019-05-14T08:13:02.918Z,63
2019-05-14T08:14:03.404Z,62
2019-05-14T08:15:22.629Z,62
2019-05-14T08:16:02.974Z,62
2019-05-14T08:17:02.927Z,62
2019-05-14T08:18:02.976Z,62
2019-05-14T08:19:29.671Z,62
2019-05-14T08:21:02.973Z,62
2019-05-14T08:22:03.025Z,62
2019-05-14T08:23:03.659Z,62
2019-05-14T08:24:03.594Z,62
2019-05-14T08:25:02.724Z,62
2019-05-14T08:26:04.954Z,62
2019-05-14T08:27:03.639Z,61
2019-05-14T08:28:03.545Z,61
2019-05-14T08:29:02.729Z,60
2019-05-14T08:30:02.865Z,60
2019-05-14T08:31:02.713Z,60
2019-05-14T08:32:02.700Z,60
2019-05-14T08:33:03.436Z,60
2019-05-14T08:34:09.332Z,59
2019-05-14T08:35:02.624Z,59
2019-05-14T08:36:03.534Z,59
2019-05-14T08:37:05.587Z,59
2019-05-14T08:38:12.431Z,59
2019-05-14T08:39:03.516Z,58
2019-05-14T08:40:03.560Z,58
2019-05-14T08:41:03.360Z,58
2019-05-14T08:42:04.596Z,58
2019-05-14T08:43:03.308Z,58
2019-05-14T08:44:03.271Z,58
2019-05-14T08:45:14.092Z,58
2019-05-14T08:46:03.179Z,58
2019-05-14T08:47:03.468Z,58
2019-05-14T08:48:02.949Z,57
2019-05-14T08:49:03.147Z,56
2019-05-14T08:50:03.041Z,56
2019-05-14T08:51:03.319Z,56
2019-05-14T08:52:02.948Z,56
2019-05-14T08:53:02.702Z,56
2019-05-14T08:54:02.999Z,56
2019-05-14T08:55:14.409Z,55
2019-05-14T08:56:02.735Z,55
2019-05-14T08:57:03.801Z,55
2019-05-14T08:58:03.169Z,55
2019-05-14T08:59:03.564Z,55
2019-05-14T09:00:03.918Z,55
2019-05-14T09:01:03.579Z,55
2019-05-14T09:02:11.052Z,55
2019-05-14T09:03:03.683Z,55
2019-05-14T09:04:03.416Z,55
2019-05-14T09:05:09.996Z,55
2019-05-14T09:06:03.202Z,55
2019-05-14T09:07:03.405Z,55
2019-05-14T09:08:03.222Z,55
2019-05-14T09:09:03.485Z,55
2019-05-14T09:10:03.428Z,55
2019-05-14T09:11:03.183Z,55
2019-05-14T09:12:03.185Z,55
2019-05-14T09:13:03.296Z,55
2019-05-14T09:14:03.079Z,55
2019-05-14T09:15:03.322Z,55
2019-05-14T09:16:02.970Z,55
2019-05-14T09:17:03.374Z,55
2019-05-14T09:18:04.202Z,54
2019-05-14T09:19:02.669Z,54
2019-05-14T09:20:12.060Z,54
2019-05-14T09:21:03.680Z,54
2019-05-14T09:22:02.774Z,54
2019-05-14T09:23:03.728Z,54
2019-05-14T09:24:03.564Z,54
2019-05-14T09:25:03.533Z,54
2019-05-14T09:26:03.644Z,54
2019-05-14T09:27:08.596Z,54
2019-05-14T09:28:03.565Z,54
2019-05-14T09:29:29.684Z,54
2019-05-14T09:31:03.267Z,54
2019-05-14T09:32:03.039Z,54
2019-05-14T09:33:03.354Z,53
2019-05-14T09:34:03.423Z,53
2019-05-14T09:35:03.139Z,53
2019-05-14T09:36:24.479Z,53
2019-05-14T09:37:03.101Z,52
2019-05-14T09:38:02.911Z,52
2019-05-14T09:39:02.962Z,52
2019-05-14T09:40:02.950Z,52
2019-05-14T09:41:18.363Z,52
2019-05-14T09:42:02.841Z,52
2019-05-14T09:43:03.073Z,52
2019-05-14T09:44:03.212Z,51
2019-05-14T09:45:02.814Z,51
2019-05-14T09:46:02.833Z,52
2019-05-14T09:47:02.656Z,52
2019-05-14T09:48:03.632Z,52
2019-05-14T09:49:03.643Z,52
2019-05-14T09:50:23.814Z,51
2019-05-14T09:51:03.515Z,51
2019-05-14T09:52:02.808Z,51
2019-05-14T09:53:02.794Z,51
2019-05-14T09:54:03.755Z,52
2019-05-14T09:55:03.527Z,52
2019-05-14T09:56:02.708Z,51
2019-05-14T09:57:02.746Z,51
2019-05-14T09:58:03.509Z,51
2019-05-14T09:59:03.653Z,52
2019-05-14T10:00:03.459Z,52
2019-05-14T10:01:03.359Z,52
2019-05-14T10:02:03.244Z,52
2019-05-14T10:03:03.294Z,52
2019-05-14T10:04:03.536Z,52
2019-05-14T10:05:03.556Z,51
2019-05-14T10:06:02.946Z,52
2019-05-14T10:07:03.188Z,52
2019-05-14T10:08:03.270Z,52
2019-05-14T10:09:03.051Z,52
2019-05-14T10:10:03.235Z,52
2019-05-14T10:11:03.136Z,53
2019-05-14T10:12:02.973Z,53
2019-05-14T10:13:02.856Z,53
2019-05-14T10:14:02.879Z,53
2019-05-14T10:15:03.038Z,53
2019-05-14T10:16:03.052Z,53
2019-05-14T10:17:02.863Z,53
2019-05-14T10:18:02.971Z,52
2019-05-14T10:19:03.002Z,52
2019-05-14T10:20:03.016Z,52
2019-05-14T10:21:03.043Z,52
2019-05-14T10:22:03.331Z,52
2019-05-14T10:23:03.689Z,52
2019-05-14T10:24:03.720Z,52
2019-05-14T10:25:03.837Z,51
2019-05-14T10:26:03.454Z,51
2019-05-14T10:27:02.788Z,50
2019-05-14T10:28:03.771Z,50
2019-05-14T10:29:02.851Z,50
2019-05-14T10:30:03.444Z,50
2019-05-14T10:31:04.014Z,50
2019-05-14T10:32:02.747Z,50
2019-05-14T10:33:15.318Z,50
2019-05-14T10:34:03.228Z,50
2019-05-14T10:35:03.511Z,50
2019-05-14T10:36:03.316Z,50
2019-05-14T10:37:03.229Z,49
2019-05-14T10:38:03.178Z,49
2019-05-14T10:39:03.396Z,49
2019-05-14T10:40:03.307Z,49
2019-05-14T10:41:03.311Z,49
2019-05-14T10:42:03.356Z,49
2019-05-14T10:43:03.227Z,49
2019-05-14T10:44:03.064Z,49
2019-05-14T10:45:03.143Z,48
2019-05-14T10:46:02.775Z,48
2019-05-14T10:47:03.611Z,48
2019-05-14T10:48:03.193Z,49
2019-05-14T10:49:24.002Z,48
2019-05-14T10:50:03.148Z,48
2019-05-14T10:51:03.986Z,48
2019-05-14T10:52:03.138Z,48
2019-05-14T10:53:02.902Z,47
2019-05-14T10:54:29.154Z,47
2019-05-14T10:55:02.893Z,46
2019-05-14T10:56:03.092Z,46
2019-05-14T10:57:02.824Z,46
2019-05-14T10:58:02.760Z,47
2019-05-14T11:00:02.658Z,46
2019-05-14T11:01:03.833Z,46
2019-05-14T11:02:02.892Z,46
2019-05-14T11:03:03.731Z,45
2019-05-14T11:04:03.386Z,45
2019-05-14T11:05:03.609Z,46
2019-05-14T11:07:02.501Z,46
2019-05-14T11:08:02.008Z,46
2019-05-14T11:09:02.342Z,46
2019-05-14T11:10:02.726Z,46
2019-05-14T11:11:04.673Z,46
2019-05-14T11:12:02.351Z,46
2019-05-14T11:13:02.514Z,46
2019-05-14T11:14:02.428Z,45
2019-05-14T11:15:02.394Z,45
2019-05-14T11:16:02.467Z,45
2019-05-14T11:17:02.006Z,45
2019-05-14T11:18:02.070Z,45
2019-05-14T11:19:01.980Z,45
2019-05-14T11:20:02.838Z,44
2019-05-14T11:21:30.253Z,44
2019-05-14T11:23:01.983Z,44
2019-05-14T11:24:01.876Z,43
2019-05-14T11:25:02.184Z,43
2019-05-14T11:26:02.062Z,43
2019-05-14T11:27:01.738Z,43
2019-05-14T11:28:02.782Z,44
2019-05-14T11:29:02.507Z,44
2019-05-14T11:30:01.743Z,44
2019-05-14T11:31:02.596Z,44
2019-05-14T11:32:02.533Z,44
2019-05-14T11:33:02.545Z,43
2019-05-14T11:34:02.744Z,43
2019-05-14T11:35:02.401Z,43
2019-05-14T11:36:02.513Z,44
2019-05-14T11:37:02.438Z,44
2019-05-14T11:38:02.474Z,44
2019-05-14T11:40:03.498Z,44
2019-05-14T11:41:03.159Z,45
2019-05-14T11:42:03.354Z,45
2019-05-14T11:43:02.957Z,45
2019-05-14T11:44:03.465Z,45
2019-05-14T11:45:03.411Z,45
2019-05-14T11:46:02.851Z,45
2019-05-14T11:47:03.141Z,45
2019-05-14T11:48:02.980Z,45
2019-05-14T11:49:02.993Z,45
2019-05-14T11:50:03.303Z,45
2019-05-14T11:51:03.237Z,45
2019-05-14T11:52:12.139Z,45
2019-05-14T11:53:02.967Z,45
2019-05-14T11:54:02.774Z,45
2019-05-14T11:55:03.375Z,45
2019-05-14T11:56:03.812Z,45
2019-05-14T11:57:03.110Z,45
2019-05-14T11:58:02.831Z,44
2019-05-14T11:59:03.721Z,44
2019-05-14T12:00:02.932Z,44
2019-05-14T12:01:02.758Z,44
2019-05-14T12:02:03.583Z,44
2019-05-14T12:03:03.399Z,43
2019-05-14T12:04:02.701Z,43
2019-05-14T12:05:02.989Z,43
2019-05-14T12:06:02.914Z,44
2019-05-14T12:07:03.750Z,43
2019-05-14T12:08:03.107Z,42
2019-05-14T12:09:03.059Z,42
2019-05-14T12:10:03.499Z,41
2019-05-14T12:11:02.851Z,41
2019-05-14T12:12:03.934Z,41
2019-05-14T12:13:02.745Z,41
2019-05-14T12:14:03.512Z,40
2019-05-14T12:15:02.785Z,40
2019-05-14T12:16:03.782Z,40
2019-05-14T12:17:03.709Z,40
2019-05-14T12:18:03.599Z,40
2019-05-14T12:19:03.432Z,41
2019-05-14T12:20:03.467Z,41
2019-05-14T12:21:03.049Z,41
2019-05-14T12:22:12.585Z,41
2019-05-14T12:23:03.146Z,41
2019-05-14T12:24:13.978Z,41
2019-05-14T12:25:03.185Z,41
2019-05-14T12:26:03.215Z,40
2019-05-14T12:27:03.039Z,41
2019-05-14T12:28:03.237Z,40
2019-05-14T12:29:03.133Z,40
2019-05-14T12:30:03.302Z,40
2019-05-14T12:31:03.108Z,40
2019-05-14T12:32:03.248Z,40
2019-05-14T12:33:02.884Z,40
2019-05-14T12:34:03.724Z,40
2019-05-14T12:35:03.020Z,39
2019-05-14T12:36:02.636Z,40
2019-05-14T12:37:02.751Z,40
2019-05-14T12:38:03.682Z,40
2019-05-14T12:39:02.750Z,40
2019-05-14T12:40:02.601Z,40
2019-05-14T12:41:03.484Z,40
2019-05-14T12:42:03.500Z,40
2019-05-14T12:43:03.474Z,40
2019-05-14T12:44:03.451Z,40
2019-05-14T12:45:03.336Z,40
2019-05-14T12:46:03.327Z,40
2019-05-14T12:47:03.338Z,40
2019-05-14T12:48:03.549Z,40
2019-05-14T12:49:03.353Z,40
2019-05-14T12:50:03.517Z,40
2019-05-14T12:51:03.030Z,40
2019-05-14T12:52:26.396Z,40
2019-05-14T12:53:03.403Z,40
2019-05-14T12:54:03.277Z,40
2019-05-14T12:55:03.154Z,41
2019-05-14T12:56:03.034Z,41
2019-05-14T12:57:02.917Z,41
2019-05-14T12:58:03.641Z,41
2019-05-14T12:59:02.833Z,42
2019-05-14T13:00:03.224Z,42
2019-05-14T13:01:03.119Z,42
2019-05-14T13:02:03.743Z,42
2019-05-14T13:03:02.705Z,42
2019-05-14T13:04:03.102Z,41
2019-05-14T13:05:03.739Z,40
2019-05-14T13:06:02.758Z,40
2019-05-14T13:07:03.656Z,40
2019-05-14T13:08:03.643Z,40
2019-05-14T13:09:03.593Z,39
2019-05-14T13:10:03.623Z,39
2019-05-14T13:11:03.591Z,39
2019-05-14T13:12:03.664Z,39
2019-05-14T13:13:03.725Z,39
2019-05-14T13:14:03.305Z,39
2019-05-14T13:15:03.672Z,39
2019-05-14T13:16:04.738Z,39
2019-05-14T13:17:03.644Z,39
2019-05-14T13:18:03.559Z,39
2019-05-14T13:19:03.513Z,40
2019-05-14T13:20:03.207Z,40
2019-05-14T13:21:03.398Z,40
2019-05-14T13:22:36.567Z,40
2019-05-14T13:24:02.912Z,40
2019-05-14T13:25:03.112Z,40
2019-05-14T13:26:02.957Z,41
2019-05-14T13:27:03.040Z,42
2019-05-14T13:28:03.196Z,43
2019-05-14T13:29:11.070Z,43
2019-05-14T13:30:03.153Z,44
2019-05-14T13:31:02.959Z,43
2019-05-14T13:32:03.829Z,43
2019-05-14T13:33:02.782Z,44
2019-05-14T13:34:02.659Z,44
2019-05-14T13:35:03.711Z,44
2019-05-14T13:36:03.592Z,44
2019-05-14T13:37:03.509Z,44
2019-05-14T13:38:03.726Z,44
2019-05-14T13:39:03.505Z,44
2019-05-14T13:40:03.727Z,44
2019-05-14T13:41:02.821Z,44
2019-05-14T13:42:03.448Z,44
2019-05-14T13:43:03.491Z,44
2019-05-14T13:44:25.397Z,44
2019-05-14T13:45:03.261Z,44
2019-05-14T13:46:03.022Z,44
2019-05-14T13:47:03.133Z,44
2019-05-14T13:48:03.632Z,45
2019-05-14T13:49:03.404Z,45
2019-05-14T13:50:03.140Z,45
2019-05-14T13:51:02.631Z,45
2019-05-14T13:52:03.412Z,45
2019-05-14T13:53:13.284Z,45
2019-05-14T13:54:03.347Z,45
2019-05-14T13:55:03.241Z,45
2019-05-14T13:56:02.998Z,45
2019-05-14T13:57:02.773Z,45
2019-05-14T13:58:03.066Z,45
2019-05-14T13:59:03.229Z,46
2019-05-14T14:00:02.815Z,46
2019-05-14T14:01:03.136Z,46
2019-05-14T14:02:03.631Z,46
2019-05-14T14:03:03.624Z,46
2019-05-14T14:04:15.350Z,46
2019-05-14T14:05:03.127Z,45
2019-05-14T14:06:02.775Z,45
2019-05-14T14:07:03.430Z,45
2019-05-14T14:08:03.557Z,45
2019-05-14T14:09:03.581Z,45
2019-05-14T14:10:03.389Z,45
2019-05-14T14:11:04.908Z,45
2019-05-14T14:12:03.342Z,45
2019-05-14T14:13:11.737Z,45
2019-05-14T14:14:03.316Z,45
2019-05-14T14:15:02.906Z,45
2019-05-14T14:16:03.550Z,45
2019-05-14T14:17:03.232Z,45
2019-05-14T14:18:03.204Z,44
2019-05-14T14:19:04.140Z,44
2019-05-14T14:20:03.263Z,44
2019-05-14T14:21:03.377Z,44
2019-05-14T14:22:02.907Z,44
2019-05-14T14:23:31.350Z,44
2019-05-14T14:25:03.311Z,44